Time;durP1;ratioP1;P1;durP2;ratioP2;P2;SDS_P1;SDS_P2;PMS_P1;PMS_P2;Temp;Humidity;BMP_temperature;BMP_pressure;BME280_temperature;BME280_humidity;BME280_pressure;Samples;Min_cycle;Max_cycle;Signal;HPM_P1;HPM_P2
2021/12/08 00:02:15;;;;;;;50.95;22.25;;;;;;;2.62;91.86;100052.13;4974609;28;20039;-86
2021/12/08 00:04:42;;;;;;;44.97;20.83;;;;;;;2.77;89.97;100063.94;4974505;28;20042;-86
2021/12/08 00:07:09;;;;;;;46.80;19.75;;;;;;;2.86;89.66;100050.94;4974401;28;20493;-86
2021/12/08 00:09:48;;;;;;;44.20;20.65;;;;;;;2.81;90.06;100060.13;4974479;28;20118;-85
2021/12/08 00:14:59;;;;;;;44.50;19.58;;;;;;;2.93;89.55;100040.81;4974130;28;20517;-85
2021/12/08 00:17:25;;;;;;;41.63;20.13;;;;;;;2.86;89.45;100026.56;4973907;28;20035;-85
2021/12/08 00:19:51;;;;;;;39.65;19.00;;;;;;;2.86;90.04;100037.03;4972912;28;20045;-85
2021/12/08 00:22:17;;;;;;;43.55;20.88;;;;;;;2.60;90.86;100034.75;4972890;28;20038;-84
2021/12/08 00:24:43;;;;;;;40.40;20.38;;;;;;;2.57;92.54;100031.53;4972738;28;20045;-86
2021/12/08 00:27:09;;;;;;;37.80;19.58;;;;;;;2.49;92.45;100029.53;4972757;28;20031;-85
2021/12/08 00:29:34;;;;;;;34.97;16.30;;;;;;;2.65;91.68;100041.41;4955321;28;20027;-87
2021/12/08 00:32:00;;;;;;;32.13;14.82;;;;;;;2.45;91.19;100040.38;4972580;28;20039;-87
2021/12/08 00:34:26;;;;;;;31.80;14.50;;;;;;;2.45;92.10;100041.19;4972595;28;20035;-84
2021/12/08 00:36:56;;;;;;;34.10;14.05;;;;;;;2.56;90.71;100045.56;4972581;28;20081;-85
2021/12/08 00:39:23;;;;;;;28.83;12.57;;;;;;;2.53;91.00;100043.19;4970245;28;20030;-84
2021/12/08 00:41:49;;;;;;;30.63;14.93;;;;;;;2.49;90.97;100033.94;4972587;28;20042;-85
2021/12/08 00:44:14;;;;;;;33.05;14.25;;;;;;;2.41;90.95;100034.56;4972360;28;20031;-84
2021/12/08 00:46:41;;;;;;;29.33;15.35;;;;;;;2.47;91.31;100033.22;4972824;28;20033;-87
2021/12/08 00:49:08;;;;;;;32.92;16.52;;;;;;;2.30;92.20;100031.97;4972997;28;20039;-89
2021/12/08 00:51:34;;;;;;;34.85;16.30;;;;;;;2.43;91.67;100027.41;4972603;28;20042;-86
2021/12/08 00:54:00;;;;;;;35.75;15.55;;;;;;;2.45;91.14;100024.69;4972452;28;20093;-86
2021/12/08 00:56:26;;;;;;;38.00;17.58;;;;;;;2.42;91.78;100022.31;4972466;28;20486;-86
2021/12/08 00:58:53;;;;;;;36.15;16.92;;;;;;;2.25;92.28;100013.22;4973070;28;20031;-84
2021/12/08 01:01:19;;;;;;;39.63;18.02;;;;;;;2.23;93.13;100009.88;4972821;28;20043;-83
2021/12/08 01:03:47;;;;;;;37.50;17.42;;;;;;;2.27;93.37;100010.44;4972216;28;20034;-85
2021/12/08 01:06:13;;;;;;;35.78;17.92;;;;;;;2.31;93.89;100002.25;4956326;28;20051;-87
2021/12/08 01:08:39;;;;;;;40.80;18.65;;;;;;;2.36;93.40;99994.84;4972561;28;20028;-84
2021/12/08 01:11:10;;;;;;;41.38;20.05;;;;;;;2.34;94.18;100002.00;4974958;28;20039;-86
2021/12/08 01:13:35;;;;;;;44.42;20.45;;;;;;;2.30;94.36;99999.75;4976119;28;20023;-85
2021/12/08 01:16:01;;;;;;;43.25;19.65;;;;;;;2.01;96.49;99999.44;4976610;28;20035;-88
2021/12/08 01:18:29;;;;;;;44.45;20.08;;;;;;;2.25;95.66;100000.13;4976110;28;20038;-85
2021/12/08 01:20:56;;;;;;;50.33;23.42;;;;;;;2.21;96.28;100013.56;4975884;28;20440;-85
2021/12/08 01:23:22;;;;;;;46.97;22.42;;;;;;;2.26;95.87;100007.00;4976018;28;20046;-85
2021/12/08 01:25:48;;;;;;;47.53;23.75;;;;;;;2.13;96.18;100008.94;4958623;28;20023;-84
2021/12/08 01:28:18;;;;;;;50.47;23.73;;;;;;;2.32;95.70;100010.94;4975767;28;20031;-84
2021/12/08 01:30:44;;;;;;;53.80;24.33;;;;;;;2.44;93.45;99995.09;4958608;28;20535;-85
2021/12/08 01:33:09;;;;;;;47.50;23.10;;;;;;;2.42;93.63;99990.94;4976025;28;20030;-85
2021/12/08 01:35:35;;;;;;;47.95;23.50;;;;;;;2.41;93.82;99982.25;4976927;28;20448;-82
2021/12/08 01:38:02;;;;;;;58.88;24.27;;;;;;;2.58;92.88;99973.88;4977054;28;20489;-86
2021/12/08 01:40:27;;;;;;;50.00;22.88;;;;;;;2.56;92.54;99969.72;4977022;28;20035;-84
2021/12/08 01:42:56;;;;;;;52.95;23.05;;;;;;;2.52;92.46;99971.75;4976971;28;20031;-85
2021/12/08 01:48:13;;;;;;;47.97;23.50;;;;;;;2.49;93.71;99979.84;4977275;28;20049;-87
2021/12/08 01:50:43;;;;;;;52.97;25.45;;;;;;;2.46;94.13;99980.09;4959800;28;20073;-85
2021/12/08 01:53:10;;;;;;;51.80;25.38;;;;;;;2.35;95.52;99987.16;4977079;28;20039;-84
2021/12/08 01:55:37;;;;;;;49.33;23.90;;;;;;;2.27;97.00;99973.84;4977111;28;20027;-86
2021/12/08 01:58:04;;;;;;;49.35;22.65;;;;;;;2.46;96.12;99980.09;4959490;28;20125;-85
2021/12/08 02:00:33;;;;;;;45.67;21.90;;;;;;;2.31;95.95;99970.03;4977280;28;20027;-85
2021/12/08 02:02:59;;;;;;;45.63;22.50;;;;;;;2.24;96.58;99961.03;4976935;28;20050;-85
2021/12/08 02:05:26;;;;;;;45.10;21.33;;;;;;;2.34;96.03;99959.34;4977022;28;20113;-86
2021/12/08 02:07:52;;;;;;;45.03;21.60;;;;;;;2.50;95.13;99962.38;4976934;28;20056;-83
2021/12/08 02:10:18;;;;;;;48.10;22.08;;;;;;;2.45;95.47;99964.53;4977080;28;20039;-85
2021/12/08 02:12:46;;;;;;;47.63;20.92;;;;;;;2.44;95.42;99955.88;4976609;28;20117;-84
2021/12/08 02:15:14;;;;;;;48.35;22.17;;;;;;;2.37;95.44;99946.84;4976432;28;20102;-85
2021/12/08 02:17:40;;;;;;;59.70;23.02;;;;;;;2.35;96.09;99951.38;4976323;28;20394;-84
2021/12/08 02:20:09;;;;;;;53.95;21.52;;;;;;;2.39;96.07;99937.09;4976764;28;20050;-85
2021/12/08 02:22:35;;;;;;;49.35;22.17;;;;;;;2.47;95.52;99934.69;4975181;28;20037;-86
2021/12/08 02:25:01;;;;;;;47.65;20.83;;;;;;;2.70;93.85;99929.34;4976236;28;20122;-86
2021/12/08 02:27:26;;;;;;;45.00;20.40;;;;;;;3.00;91.88;99916.34;4959069;28;20446;-84
2021/12/08 02:29:59;;;;;;;41.60;20.63;;;;;;;2.64;93.82;99915.00;4976290;28;20073;-83
2021/12/08 02:46:42;;;;;;;42.65;19.25;;;;;;;2.81;93.38;99903.13;4976358;28;20050;-84
2021/12/08 02:49:01;;;;;;;38.63;18.52;;;;;;;2.92;92.79;99882.94;4976333;28;20509;-85
2021/12/08 02:51:27;;;;;;;33.72;18.08;;;;;;;2.88;92.14;99872.88;4976167;28;20034;-85
2021/12/08 02:53:52;;;;;;;37.38;18.67;;;;;;;2.84;92.77;99881.94;4976028;28;20031;-83
2021/12/08 02:56:18;;;;;;;44.28;18.25;;;;;;;2.71;93.71;99868.22;4978102;28;20039;-89
2021/12/08 02:58:45;;;;;;;39.00;17.83;;;;;;;2.60;94.61;99867.34;4985774;28;20027;-88
2021/12/08 03:01:12;;;;;;;40.15;19.23;;;;;;;2.57;94.68;99872.81;4970616;28;20048;-86
2021/12/08 03:03:39;;;;;;;35.15;17.95;;;;;;;2.52;95.95;99859.28;4988638;28;20121;-86
2021/12/08 03:06:05;;;;;;;36.25;18.27;;;;;;;2.66;95.52;99867.78;4996344;28;20038;-83
2021/12/08 03:08:31;;;;;;;38.85;18.58;;;;;;;2.54;96.16;99852.16;4995816;28;20019;-83
2021/12/08 03:10:57;;;;;;;42.05;19.42;;;;;;;2.50;97.43;99848.13;4995484;28;20035;-83
2021/12/08 03:13:32;;;;;;;40.40;20.30;;;;;;;2.38;98.96;99836.09;4995938;28;20099;-84
2021/12/08 03:15:58;;;;;;;48.78;21.90;;;;;;;2.47;99.49;99835.31;4996418;28;20069;-84
2021/12/08 03:18:32;;;;;;;39.92;20.42;;;;;;;2.40;100.00;99839.38;4994256;28;20035;-84
2021/12/08 03:20:58;;;;;;;47.63;21.42;;;;;;;2.37;100.00;99847.50;4986700;28;20042;-85
2021/12/08 03:23:31;;;;;;;49.33;22.23;;;;;;;2.45;100.00;99841.63;4992743;28;20089;-85
2021/12/08 03:25:59;;;;;;;45.30;22.70;;;;;;;2.52;100.00;99848.81;4993651;28;20050;-86
2021/12/08 03:28:30;;;;;;;49.08;23.30;;;;;;;2.50;100.00;99835.06;4994821;28;20035;-85
2021/12/08 03:31:07;;;;;;;50.08;24.23;;;;;;;2.64;100.00;99838.31;4995079;28;20023;-83
2021/12/08 03:33:34;;;;;;;62.15;25.15;;;;;;;2.62;100.00;99843.66;4994966;28;20027;-84
2021/12/08 03:36:00;;;;;;;56.42;26.83;;;;;;;2.58;100.00;99848.34;4978449;28;20462;-85
2021/12/08 03:38:26;;;;;;;54.70;26.25;;;;;;;2.67;100.00;99851.97;4966595;28;20042;-83
2021/12/08 03:40:52;;;;;;;53.63;25.80;;;;;;;2.69;100.00;99833.50;4976278;28;20034;-85
2021/12/08 03:43:18;;;;;;;54.45;26.73;;;;;;;2.80;100.00;99830.81;4975427;28;20034;-86
2021/12/08 03:45:48;;;;;;;56.50;27.20;;;;;;;2.77;100.00;99836.31;4975039;28;20043;-88
2021/12/08 03:48:38;;;;;;;56.42;27.88;;;;;;;2.74;100.00;99836.56;4975052;28;20035;-87
2021/12/08 03:51:04;;;;;;;54.95;28.13;;;;;;;2.83;100.00;99830.56;4975131;28;20042;-84
2021/12/08 03:53:29;;;;;;;59.08;29.10;;;;;;;2.80;100.00;99833.44;4975034;28;20405;-85
2021/12/08 03:55:55;;;;;;;56.63;28.80;;;;;;;2.84;100.00;99837.47;4974601;28;20049;-85
2021/12/08 03:58:23;;;;;;;62.75;30.10;;;;;;;2.82;100.00;99818.44;4973724;28;20057;-84
2021/12/08 04:00:50;;;;;;;66.82;29.27;;;;;;;2.85;100.00;99813.75;4974510;28;20097;-85
2021/12/08 04:03:17;;;;;;;66.40;31.38;;;;;;;2.73;100.00;99819.22;4974168;28;20071;-84
2021/12/08 04:05:54;;;;;;;61.20;31.88;;;;;;;2.64;100.00;99807.75;4974107;28;20452;-84
2021/12/08 04:08:45;;;;;;;54.63;28.38;;;;;;;2.70;100.00;99795.94;4975748;28;20062;-83
2021/12/08 04:11:12;;;;;;;62.20;29.83;;;;;;;2.72;100.00;99780.94;4973905;28;20038;-84
2021/12/08 04:14:11;;;;;;;62.45;28.23;;;;;;;2.78;100.00;99791.72;4956882;28;20081;-83
2021/12/08 04:16:52;;;;;;;58.70;30.50;;;;;;;2.59;100.00;99787.19;4974136;28;20038;-85
2021/12/08 04:19:19;;;;;;;62.92;29.50;;;;;;;2.70;100.00;99785.47;4973953;28;20043;-86
2021/12/08 04:21:46;;;;;;;59.50;30.48;;;;;;;2.65;100.00;99779.81;4973730;28;20171;-85
2021/12/08 04:24:13;;;;;;;66.85;30.10;;;;;;;2.77;100.00;99778.75;4973778;28;20482;-85
2021/12/08 04:26:44;;;;;;;58.58;29.48;;;;;;;2.75;100.00;99778.88;4974032;28;20390;-84
2021/12/08 04:29:12;;;;;;;63.97;30.60;;;;;;;2.67;100.00;99767.41;4973883;28;20070;-85
2021/12/08 04:31:40;;;;;;;62.00;29.60;;;;;;;2.80;100.00;99768.03;4973874;28;20140;-84
2021/12/08 04:34:16;;;;;;;65.32;31.95;;;;;;;2.74;100.00;99769.38;4973924;28;20418;-86
2021/12/08 04:36:47;;;;;;;58.92;29.95;;;;;;;2.72;100.00;99771.28;4973814;28;20039;-87
2021/12/08 04:40:13;;;;;;;69.70;33.40;;;;;;;2.65;100.00;99771.97;4973563;28;20039;-85
2021/12/08 04:45:24;;;;;;;68.07;32.78;;;;;;;2.53;100.00;99764.19;4975165;28;20046;-87
2021/12/08 05:00:28;;;;;;;63.60;32.38;;;;;;;2.60;100.00;99783.63;4899013;29;20100;-85
2021/12/08 05:07:30;;;;;;;62.97;32.47;;;;;;;2.66;100.00;99787.50;4899377;29;20539;-86
2021/12/08 05:09:58;;;;;;;70.53;35.38;;;;;;;2.66;100.00;99791.91;4899019;29;20060;-86
2021/12/08 05:12:30;;;;;;;66.35;32.92;;;;;;;2.75;100.00;99780.69;4899138;29;20077;-85
2021/12/08 05:15:06;;;;;;;62.13;32.30;;;;;;;2.69;100.00;99778.56;4898889;29;20067;-85
2021/12/08 05:17:39;;;;;;;65.25;33.47;;;;;;;2.66;100.00;99776.22;4898859;29;20041;-85
2021/12/08 05:20:12;;;;;;;71.95;35.22;;;;;;;2.57;100.00;99777.84;4898798;29;20052;-86
2021/12/08 05:22:43;;;;;;;66.60;33.08;;;;;;;2.60;100.00;99777.56;4969439;28;20054;-85
2021/12/08 05:25:12;;;;;;;72.70;34.45;;;;;;;2.60;100.00;99775.78;4977204;28;20478;-87
2021/12/08 05:27:46;;;;;;;75.97;34.97;;;;;;;2.64;100.00;99776.34;4977277;28;20034;-85
2021/12/08 05:30:35;;;;;;;70.78;33.45;;;;;;;2.76;100.00;99766.63;4977090;28;20070;-85
2021/12/08 05:33:01;;;;;;;67.18;35.00;;;;;;;2.71;100.00;99768.81;4966550;28;20183;-86
2021/12/08 05:35:27;;;;;;;67.70;34.47;;;;;;;2.64;100.00;99783.38;4977080;28;20072;-87
2021/12/08 05:37:53;;;;;;;64.10;34.50;;;;;;;2.67;100.00;99777.88;4976798;28;20042;-85
2021/12/08 05:40:29;;;;;;;72.80;35.67;;;;;;;2.65;100.00;99779.81;4976840;28;20097;-85
2021/12/08 05:42:55;;;;;;;71.22;35.03;;;;;;;2.72;100.00;99780.94;4976577;28;20039;-84
2021/12/08 05:45:21;;;;;;;68.43;36.10;;;;;;;2.87;100.00;99779.63;4976708;28;20045;-84
2021/12/08 05:47:49;;;;;;;69.28;34.90;;;;;;;2.69;100.00;99789.88;4977343;28;20035;-83
2021/12/08 05:50:22;;;;;;;73.70;36.95;;;;;;;2.81;100.00;99780.16;4959557;28;20066;-83
2021/12/08 05:52:49;;;;;;;66.15;33.85;;;;;;;2.72;100.00;99780.94;4976658;28;20059;-85
2021/12/08 05:55:15;;;;;;;71.50;36.00;;;;;;;2.87;100.00;99771.78;4976727;28;20097;-85
2021/12/08 05:57:43;;;;;;;67.93;34.42;;;;;;;2.84;100.00;99772.03;4976686;28;20335;-86
2021/12/08 06:00:21;;;;;;;65.70;34.70;;;;;;;2.91;100.00;99775.78;4977261;28;20096;-84
2021/12/08 06:02:47;;;;;;;64.30;34.08;;;;;;;2.88;100.00;99758.56;4976871;28;20038;-87
2021/12/08 06:05:14;;;;;;;64.07;33.92;;;;;;;2.84;100.00;99753.72;4979378;28;20034;-88
2021/12/08 06:07:40;;;;;;;73.82;35.05;;;;;;;2.50;100.00;99748.75;4977413;28;20413;-86
2021/12/08 06:10:11;;;;;;;60.70;33.47;;;;;;;2.55;100.00;99738.72;4977774;28;20049;-90
2021/12/08 06:12:37;;;;;;;63.30;34.22;;;;;;;2.20;100.00;99740.88;4944542;28;20034;-88
2021/12/08 06:15:03;;;;;;;72.18;33.88;;;;;;;2.50;100.00;99724.38;4976997;28;20367;-87
2021/12/08 06:17:30;;;;;;;67.22;33.08;;;;;;;2.33;100.00;99731.03;4979243;28;20054;-86
2021/12/08 06:19:56;;;;;;;61.95;32.42;;;;;;;2.29;100.00;99727.03;4977317;28;20042;-87
2021/12/08 06:22:28;;;;;;;66.18;34.30;;;;;;;1.98;100.00;99726.16;4978980;28;20440;-89
2021/12/08 06:24:54;;;;;;;72.95;35.53;;;;;;;2.10;100.00;99729.53;4965063;28;20466;-87
2021/12/08 06:27:20;;;;;;;62.10;34.40;;;;;;;2.12;100.00;99719.78;4984447;28;20387;-86
2021/12/08 06:29:48;;;;;;;66.10;34.47;;;;;;;2.22;100.00;99715.41;4979381;28;20062;-87
2021/12/08 06:32:14;;;;;;;67.88;33.65;;;;;;;2.23;100.00;99724.94;4959462;28;20027;-86
2021/12/08 06:34:45;;;;;;;70.53;35.17;;;;;;;2.04;100.00;99714.34;4976977;28;20085;-85
2021/12/08 06:37:17;;;;;;;69.63;34.90;;;;;;;2.24;100.00;99713.53;4977773;28;20069;-85
2021/12/08 06:39:47;;;;;;;73.53;37.60;;;;;;;2.00;100.00;99715.56;4977223;28;20039;-88
2021/12/08 06:42:16;;;;;;;69.20;36.00;;;;;;;1.76;100.00;99701.91;4977654;28;20035;-87
2021/12/08 06:44:46;;;;;;;80.28;38.78;;;;;;;1.56;100.00;99680.88;4977329;28;20041;-91
2021/12/08 06:47:20;;;;;;;75.97;36.58;;;;;;;1.56;100.00;99673.03;4979488;28;20074;-88
2021/12/08 06:49:48;;;;;;;80.68;39.72;;;;;;;1.56;100.00;99664.38;4979365;28;20061;-85
2021/12/08 06:52:20;;;;;;;80.30;39.25;;;;;;;1.58;100.00;99654.66;4977257;28;20106;-88
2021/12/08 06:55:04;;;;;;;74.60;37.60;;;;;;;1.61;100.00;99651.78;4975921;28;20486;-92
2021/12/08 06:57:34;;;;;;;73.85;38.35;;;;;;;1.64;100.00;99641.09;4977848;28;20040;-91
2021/12/08 07:00:18;;;;;;;75.63;39.53;;;;;;;1.56;100.00;99644.31;4947397;28;20134;-89
2021/12/08 07:08:20;;;;;;;73.15;39.63;;;;;;;1.72;100.00;99643.06;4981176;28;20042;-90
2021/12/08 07:10:56;;;;;;;86.88;41.35;;;;;;;1.69;100.00;99653.78;4970267;28;20054;-93
2021/12/08 07:13:25;;;;;;;84.05;41.63;;;;;;;1.54;100.00;99642.78;4967515;28;20055;-90
2021/12/08 07:16:03;;;;;;;83.70;41.75;;;;;;;1.69;100.00;99648.53;4978868;28;20035;-90
2021/12/08 07:19:10;;;;;;;86.45;41.65;;;;;;;1.66;100.00;99646.19;4962541;28;20137;-93
2021/12/08 07:21:44;;;;;;;90.18;41.40;;;;;;;1.64;100.00;99632.41;4963175;28;20046;-91
2021/12/08 07:24:25;;;;;;;87.63;43.20;;;;;;;1.61;100.00;99609.16;4985229;28;20038;-92
2021/12/08 07:26:54;;;;;;;86.45;42.63;;;;;;;1.76;100.00;99579.13;4965078;28;20039;-90
2021/12/08 07:29:25;;;;;;;78.22;40.45;;;;;;;1.93;100.00;99583.78;4965563;28;20034;-93
2021/12/08 07:31:55;;;;;;;80.72;42.63;;;;;;;1.69;100.00;99589.28;4949224;28;20039;-90
2021/12/08 07:34:23;;;;;;;88.28;44.25;;;;;;;1.56;100.00;99584.25;4953790;28;20030;-92
2021/12/08 07:36:59;;;;;;;82.00;44.15;;;;;;;1.58;100.00;99585.94;4964899;28;20050;-92
2021/12/08 07:39:43;;;;;;;92.28;46.15;;;;;;;1.55;100.00;99574.78;4978387;28;20057;-88
2021/12/08 07:42:28;;;;;;;95.07;45.58;;;;;;;1.55;100.00;99553.91;4980475;28;20035;-90
2021/12/08 07:45:02;;;;;;;104.45;46.88;;;;;;;1.59;100.00;99538.81;4989216;28;20073;-88
2021/12/08 07:47:30;;;;;;;96.75;44.15;;;;;;;1.59;100.00;99545.81;4966586;28;20027;-88
2021/12/08 07:50:12;;;;;;;88.20;45.67;;;;;;;1.71;100.00;99550.00;4965636;28;20037;-90
2021/12/08 07:52:42;;;;;;;88.75;44.20;;;;;;;1.82;100.00;99548.13;4982301;28;20122;-92
2021/12/08 07:55:13;;;;;;;85.68;44.30;;;;;;;1.72;100.00;99562.94;4961504;28;20494;-90
2021/12/08 07:57:40;;;;;;;95.65;45.60;;;;;;;1.77;100.00;99546.84;4967157;28;20027;-90
2021/12/08 08:00:33;;;;;;;84.95;43.92;;;;;;;1.73;100.00;99540.22;4979717;28;20059;-90
2021/12/08 08:03:00;;;;;;;90.63;43.03;;;;;;;1.69;100.00;99544.06;4981071;28;20039;-89
2021/12/08 08:05:28;;;;;;;87.50;41.72;;;;;;;1.72;100.00;99538.59;4961686;28;20109;-89
2021/12/08 08:07:57;;;;;;;78.15;40.83;;;;;;;1.74;100.00;99545.34;4976647;28;20038;-89
2021/12/08 08:10:24;;;;;;;78.90;37.13;;;;;;;1.79;100.00;99535.31;4975402;28;20494;-93
2021/12/08 08:12:51;;;;;;;72.32;36.00;;;;;;;1.74;100.00;99536.66;4962538;28;20111;-89
2021/12/08 08:15:25;;;;;;;71.88;36.92;;;;;;;1.83;100.00;99541.09;4960068;28;20031;-90
2021/12/08 08:17:53;;;;;;;65.63;33.58;;;;;;;1.78;100.00;99532.84;4977465;28;20031;-90
2021/12/08 08:20:38;;;;;;;63.25;33.63;;;;;;;1.76;100.00;99539.97;4976127;28;20042;-91
2021/12/08 08:23:04;;;;;;;57.60;29.05;;;;;;;1.88;100.00;99531.09;4974956;28;20027;-89
2021/12/08 08:25:37;;;;;;;55.05;26.60;;;;;;;1.80;100.00;99531.75;4978434;28;20041;-91
2021/12/08 08:28:04;;;;;;;51.95;27.38;;;;;;;1.87;100.00;99524.22;4976213;28;20052;-87
2021/12/08 08:30:40;;;;;;;56.78;26.83;;;;;;;1.86;100.00;99522.56;4980612;28;20042;-89
2021/12/08 08:33:07;;;;;;;58.38;27.38;;;;;;;1.94;100.00;99502.66;4966478;28;20095;-93
2021/12/08 08:35:56;;;;;;;47.45;24.27;;;;;;;1.96;100.00;99512.97;4972942;28;20051;-93
2021/12/08 08:38:42;;;;;;;52.53;25.92;;;;;;;1.97;100.00;99512.00;4967887;28;20039;-91
2021/12/08 08:41:24;;;;;;;51.35;25.83;;;;;;;1.96;100.00;99520.81;4971631;28;20039;-91
2021/12/08 08:43:53;;;;;;;43.88;23.83;;;;;;;2.04;100.00;99511.38;4955726;28;20043;-90
2021/12/08 08:46:26;;;;;;;41.95;20.45;;;;;;;1.92;100.00;99503.75;4972338;28;20390;-92
2021/12/08 08:49:08;;;;;;;52.50;27.27;;;;;;;1.83;100.00;99504.53;4968708;28;20043;-91
2021/12/08 08:52:01;;;;;;;53.70;26.70;;;;;;;1.78;100.00;99512.78;4957131;28;20103;-91
2021/12/08 08:54:34;;;;;;;51.97;27.33;;;;;;;1.78;100.00;99512.78;4978662;28;20926;-91
2021/12/08 08:57:03;;;;;;;56.53;28.27;;;;;;;1.96;100.00;99494.69;4960512;28;20043;-90
2021/12/08 08:59:33;;;;;;;50.55;27.98;;;;;;;1.89;100.00;99467.44;4976953;28;20058;-90
2021/12/08 09:02:06;;;;;;;47.97;26.83;;;;;;;1.99;100.00;99453.44;4958358;28;20516;-90
2021/12/08 09:04:36;;;;;;;49.80;27.73;;;;;;;2.01;100.00;99448.09;4973677;28;20053;-90
2021/12/08 09:07:10;;;;;;;58.38;29.23;;;;;;;1.94;100.00;99431.28;4978087;28;20095;-91
2021/12/08 09:09:53;;;;;;;59.83;28.77;;;;;;;2.06;100.00;99422.38;4951207;28;20042;-89
2021/12/08 09:12:21;;;;;;;61.55;28.20;;;;;;;2.05;100.00;99412.91;4961533;28;20108;-91
2021/12/08 09:14:59;;;;;;;63.47;28.25;;;;;;;2.28;100.00;99403.00;4981165;28;20070;-91
2021/12/08 09:17:41;;;;;;;51.33;27.27;;;;;;;2.16;100.00;99402.31;4947421;28;20054;-93
2021/12/08 09:20:25;;;;;;;55.63;27.48;;;;;;;2.23;100.00;99395.56;4962503;28;20410;-91
2021/12/08 09:23:07;;;;;;;52.47;29.05;;;;;;;2.16;100.00;99401.47;4970179;28;20031;-93
2021/12/08 09:26:02;;;;;;;50.60;26.80;;;;;;;2.24;100.00;99406.84;4977137;28;20043;-89
2021/12/08 09:28:38;;;;;;;60.40;29.85;;;;;;;2.13;100.00;99413.03;4968898;28;20039;-87
2021/12/08 09:31:24;;;;;;;61.75;31.40;;;;;;;2.14;100.00;99429.53;4988011;28;20031;-89
2021/12/08 09:34:03;;;;;;;61.28;30.30;;;;;;;2.07;100.00;99426.63;4974866;28;20062;-87
2021/12/08 09:36:48;;;;;;;66.20;31.80;;;;;;;2.00;100.00;99441.19;4987002;28;20042;-91
2021/12/08 09:39:23;;;;;;;65.95;31.88;;;;;;;2.06;100.00;99445.88;4955874;28;20046;-89
2021/12/08 09:42:07;;;;;;;60.80;32.33;;;;;;;2.00;100.00;99430.75;4946723;28;20447;-90
2021/12/08 09:48:33;;;;;;;64.22;30.75;;;;;;;2.13;100.00;99391.28;4973245;23;20066;-92
2021/12/08 09:51:06;;;;;;;60.00;30.75;;;;;;;2.32;100.00;99383.47;5007311;23;20047;-92
2021/12/08 09:53:52;;;;;;;58.38;28.70;;;;;;;2.64;100.00;99383.19;4955948;29;20035;-91
2021/12/08 09:56:22;;;;;;;59.00;30.75;;;;;;;2.47;100.00;99389.94;4971345;29;20058;-92
2021/12/08 10:02:04;;;;;;;61.40;30.30;;;;;;;2.31;100.00;99406.19;3096690;26;20042;-89
2021/12/08 10:04:32;;;;;;;66.60;31.00;;;;;;;2.31;100.00;99415.81;4997022;28;20049;-87
2021/12/08 10:12:35;;;;;;;59.08;30.33;;;;;;;2.20;100.00;99366.25;5007783;28;20046;-89
2021/12/08 10:15:09;;;;;;;56.15;28.95;;;;;;;2.11;100.00;99374.94;5005642;28;20054;-91
2021/12/08 10:17:35;;;;;;;58.45;29.98;;;;;;;2.19;100.00;99377.69;4954301;28;20111;-90
2021/12/08 10:20:26;;;;;;;63.58;30.67;;;;;;;2.21;100.00;99373.97;4968659;28;20066;-91
2021/12/08 10:23:10;;;;;;;59.10;31.83;;;;;;;1.98;100.00;99359.53;5006010;28;20045;-89
2021/12/08 10:25:48;;;;;;;56.90;30.13;;;;;;;2.00;100.00;99354.97;5029132;28;20034;-93
2021/12/08 10:28:21;;;;;;;56.97;30.02;;;;;;;1.67;100.00;99364.00;4995180;28;20073;-93
2021/12/08 10:31:13;;;;;;;62.67;33.90;;;;;;;1.63;100.00;99361.78;5009050;28;20041;-90
2021/12/08 10:36:49;;;;;;;60.58;31.83;;;;;;;1.79;100.00;99362.13;5024260;28;20037;-92
2021/12/08 10:39:34;;;;;;;58.40;31.33;;;;;;;1.68;100.00;99349.16;5016470;28;20037;-92
2021/12/08 10:42:14;;;;;;;65.53;31.58;;;;;;;1.35;100.00;99326.81;5013904;28;20057;-90
2021/12/08 10:45:10;;;;;;;68.22;35.60;;;;;;;1.12;100.00;99313.16;5000941;28;20030;-89
2021/12/08 10:47:40;;;;;;;67.40;35.70;;;;;;;1.15;100.00;99297.25;4996411;28;20053;-89
2021/12/08 10:55:56;;;;;;;77.13;36.05;;;;;;;1.26;100.00;99296.31;4981464;28;20058;-93
2021/12/08 10:58:57;;;;;;;64.50;33.40;;;;;;;1.01;100.00;99289.75;5004352;28;20046;-91
2021/12/08 11:01:29;;;;;;;60.35;31.33;;;;;;;0.95;100.00;99308.56;4984451;28;20073;-92
2021/12/08 11:04:16;;;;;;;53.50;28.80;;;;;;;0.86;100.00;99320.56;5006768;28;20046;-91
2021/12/08 11:06:42;;;;;;;51.88;28.85;;;;;;;0.83;100.00;99283.53;4985068;28;20050;-93
2021/12/08 11:09:19;;;;;;;47.72;27.15;;;;;;;0.95;100.00;99264.22;4992192;28;20041;-90
2021/12/08 11:12:04;;;;;;;46.80;26.63;;;;;;;0.96;100.00;99258.84;4994443;28;20038;-92
2021/12/08 11:14:42;;;;;;;43.47;25.40;;;;;;;1.08;100.00;99262.19;4991496;28;20061;-91
2021/12/08 11:17:26;;;;;;;41.75;24.88;;;;;;;1.05;100.00;99262.47;4987837;28;20037;-90
2021/12/08 11:20:15;;;;;;;44.22;26.30;;;;;;;0.99;100.00;99257.78;4988550;28;20049;-91
2021/12/08 11:22:49;;;;;;;45.15;25.77;;;;;;;1.17;100.00;99247.50;4999387;28;20037;-89
2021/12/08 11:25:32;;;;;;;47.08;26.55;;;;;;;1.15;100.00;99249.44;4980273;28;20034;-89
2021/12/08 11:28:17;;;;;;;;;;;;;;;1.19;100.00;99241.22;4985027;28;20057;-90
2021/12/08 11:30:44;;;;;;;45.30;25.92;;;;;;;1.26;100.00;99250.13;4981047;28;19922;-90
2021/12/08 11:33:26;;;;;;;41.97;24.73;;;;;;;1.22;100.00;99253.16;4969169;28;20500;-91
2021/12/08 11:36:30;;;;;;;40.60;24.43;;;;;;;1.19;100.00;99263.88;4956906;28;20047;-91
2021/12/08 11:39:05;;;;;;;41.30;24.70;;;;;;;1.30;100.00;99259.34;4970265;28;20712;-91
2021/12/08 11:41:35;;;;;;;36.10;23.02;;;;;;;1.25;100.00;99248.50;5003707;28;20034;-90
2021/12/08 11:44:06;;;;;;;36.42;21.52;;;;;;;1.30;100.00;99251.53;4998954;28;20057;-86
2021/12/08 11:46:36;;;;;;;33.22;20.02;;;;;;;1.34;100.00;99252.91;4976356;28;20045;-87
2021/12/08 11:49:14;;;;;;;32.10;20.85;;;;;;;1.24;100.00;99262.50;4996024;28;20045;-92
2021/12/08 11:51:42;;;;;;;30.67;20.00;;;;;;;1.09;100.00;99261.25;4981645;28;20129;-90
2021/12/08 11:54:38;;;;;;;35.88;21.13;;;;;;;1.03;100.00;99253.91;5001166;28;20042;-90
2021/12/08 11:57:35;;;;;;;30.80;19.33;;;;;;;1.07;100.00;99244.06;4988132;28;20035;-91
2021/12/08 12:00:20;;;;;;;29.38;19.02;;;;;;;1.04;100.00;99239.94;5005461;28;20058;-92
2021/12/08 12:02:59;;;;;;;32.08;19.92;;;;;;;1.08;100.00;99224.84;5000998;28;20026;-91
2021/12/08 12:05:31;;;;;;;30.48;18.65;;;;;;;1.17;100.00;99230.06;5002320;28;20063;-90
2021/12/08 12:08:04;;;;;;;28.55;18.05;;;;;;;1.20;100.00;99229.81;4994066;28;20061;-93
2021/12/08 12:10:34;;;;;;;27.90;17.65;;;;;;;1.24;100.00;99225.16;4983381;28;20089;-90
2021/12/08 12:13:15;;;;;;;29.63;18.13;;;;;;;1.14;100.00;99227.75;4983330;28;20062;-89
2021/12/08 12:15:46;;;;;;;27.85;17.75;;;;;;;1.08;100.00;99240.50;4993250;28;20061;-94
2021/12/08 12:18:30;;;;;;;32.35;19.63;;;;;;;1.11;100.00;99222.78;5002725;28;20070;-92
2021/12/08 12:21:30;;;;;;;31.42;20.92;;;;;;;1.16;100.00;99217.97;4985144;28;20042;-93
2021/12/08 12:24:37;;;;;;;30.88;19.88;;;;;;;1.34;100.00;99232.03;5001890;28;20053;-89
2021/12/08 12:27:32;;;;;;;31.90;20.63;;;;;;;1.12;100.00;99223.63;4991164;28;20121;-88
2021/12/08 12:30:24;;;;;;;32.55;20.83;;;;;;;0.97;100.00;99229.19;4977916;28;20047;-86
2021/12/08 12:32:53;;;;;;;34.70;19.97;;;;;;;0.99;100.00;99216.84;4981130;28;20031;-88
2021/12/08 12:35:31;;;;;;;31.88;20.58;;;;;;;0.92;100.00;99205.31;4964230;28;20474;-89
2021/12/08 12:38:44;;;;;;;31.50;20.13;;;;;;;1.11;100.00;99201.91;4976442;28;20031;-90
2021/12/08 12:41:42;;;;;;;29.73;19.20;;;;;;;1.24;100.00;99184.22;4962544;28;20073;-92
2021/12/08 12:50:25;;;;;;;26.27;17.30;;;;;;;1.48;100.00;99207.31;4928745;26;20046;-90
2021/12/08 12:53:02;;;;;;;28.17;18.40;;;;;;;1.36;100.00;99219.66;5014529;28;20276;-88
2021/12/08 13:02:10;;;;;;;32.67;21.52;;;;;;;1.11;100.00;99149.75;4470282;22;20047;-92
2021/12/08 13:04:57;;;;;;;33.88;22.10;;;;;;;1.18;100.00;99143.03;4998990;28;20061;-88
2021/12/08 13:07:24;;;;;;;32.25;21.42;;;;;;;1.25;100.00;99138.91;4980804;28;20208;-91